createdAt,value
2022-08-02T17:39:14.408Z,31.02
2022-08-02T17:41:49.031Z,30.82
2022-08-02T17:44:36.996Z,30.65
2022-08-02T17:47:11.683Z,30.72
2022-08-02T17:49:48.066Z,30.53
2022-08-02T17:52:50.635Z,30.44
2022-08-02T17:55:10.702Z,30.28
2022-08-02T17:57:56.197Z,30.21
2022-08-02T18:00:26.593Z,30.01
2022-08-02T18:02:55.585Z,30.00
2022-08-02T18:05:39.153Z,29.92
2022-08-02T18:08:10.688Z,29.77
2022-08-02T18:10:40.878Z,29.55
2022-08-02T18:13:07.682Z,29.47
2022-08-02T18:15:36.083Z,29.23
2022-08-02T18:18:02.637Z,29.10
2022-08-02T18:20:29.378Z,28.88
2022-08-02T18:22:58.804Z,28.76
2022-08-02T18:25:36.884Z,28.59
2022-08-02T18:28:12.621Z,28.50
2022-08-02T18:30:39.462Z,28.34
2022-08-02T18:33:56.152Z,28.15
2022-08-02T18:35:57.591Z,27.95
2022-08-02T18:38:26.773Z,27.80
2022-08-02T18:40:53.626Z,27.66
2022-08-02T18:46:15.419Z,27.39
2022-08-02T18:48:48.433Z,27.16
2022-08-02T18:51:18.903Z,27.00
2022-08-02T18:59:24.230Z,26.62
2022-08-02T19:01:53.034Z,26.43
2022-08-02T19:04:26.992Z,26.33
2022-08-02T19:06:54.586Z,26.22
2022-08-02T19:09:21.420Z,26.16
2022-08-02T19:11:52.299Z,26.08
2022-08-02T19:14:27.862Z,25.95
2022-08-02T19:16:59.808Z,25.80
2022-08-02T19:19:29.607Z,25.64
2022-08-02T19:22:18.870Z,25.55
2022-08-02T19:24:46.728Z,25.43
2022-08-02T19:27:14.888Z,25.32
2022-08-02T19:29:48.804Z,25.23
2022-08-02T19:32:42.398Z,25.13
2022-08-02T19:35:28.472Z,25.02
2022-08-02T19:37:55.914Z,24.92
2022-08-02T19:40:27.551Z,24.84
2022-08-02T19:44:23.584Z,24.74
2022-08-02T19:45:50.044Z,24.65
2022-08-02T19:48:24.231Z,24.56
2022-08-02T19:50:56.483Z,24.47
2022-08-02T19:53:29.174Z,24.40
2022-08-02T19:56:12.845Z,24.28
2022-08-02T19:58:47.741Z,24.22
2022-08-02T20:01:16.616Z,24.11
2022-08-02T20:03:51.443Z,23.99
2022-08-02T20:06:29.426Z,23.92
2022-08-02T20:08:59.189Z,23.77
2022-08-02T20:11:34.616Z,23.64
2022-08-02T20:14:05.219Z,23.55
2022-08-02T20:16:34.531Z,23.37
2022-08-02T20:19:07.673Z,23.28
2022-08-02T20:21:43.554Z,23.19
2022-08-02T20:24:11.864Z,23.13
2022-08-02T20:26:47.612Z,23.08
2022-08-02T20:29:14.798Z,23.04
2022-08-02T20:31:44.705Z,22.95
2022-08-02T20:34:11.390Z,22.90
2022-08-02T20:36:39.475Z,22.78
2022-08-02T20:39:06.289Z,22.73
2022-08-02T20:41:37.078Z,22.71
2022-08-02T20:44:15.842Z,22.63
2022-08-02T20:46:59.278Z,22.48
2022-08-02T20:49:41.064Z,22.39
2022-08-02T20:52:23.737Z,22.34
2022-08-02T20:54:51.851Z,22.31
2022-08-02T20:57:48.430Z,22.28
2022-08-02T21:00:12.169Z,22.19
2022-08-02T21:02:47.461Z,22.14
2022-08-02T21:05:17.336Z,22.09
2022-08-02T21:07:53.419Z,22.00
2022-08-02T21:10:23.906Z,21.91
2022-08-02T21:12:51.580Z,21.84
2022-08-02T21:15:26.837Z,21.85
2022-08-02T21:17:58.813Z,21.82
2022-08-02T21:20:32.683Z,21.77
2022-08-02T21:23:05.457Z,21.67
2022-08-02T21:25:56.987Z,21.56
2022-08-02T21:28:43.912Z,21.55
2022-08-02T21:31:15.572Z,21.49
2022-08-02T21:33:58.178Z,21.39
2022-08-02T21:36:35.527Z,21.26
2022-08-02T21:39:09.259Z,21.18
2022-08-02T21:41:39.566Z,21.11
2022-08-02T21:44:21.415Z,21.14
2022-08-02T21:46:51.202Z,21.10
2022-08-02T21:49:20.086Z,21.04
2022-08-02T21:51:57.185Z,20.98
2022-08-02T21:54:24.574Z,20.89
2022-08-02T21:56:52.866Z,20.83
2022-08-02T21:59:34.945Z,20.78
2022-08-02T22:02:07.159Z,20.72
2022-08-02T22:04:37.945Z,20.68
2022-08-02T22:07:06.325Z,20.64
2022-08-02T22:09:44.650Z,20.56
2022-08-02T22:12:17.928Z,20.51
2022-08-02T22:14:54.924Z,20.43
2022-08-02T22:17:51.063Z,20.38
2022-08-02T22:20:18.235Z,20.30
2022-08-02T22:22:48.278Z,20.25
2022-08-02T22:25:26.766Z,20.18
2022-08-02T22:28:37.472Z,20.15
2022-08-02T22:30:52.773Z,20.02
2022-08-02T22:33:38.197Z,19.98
2022-08-02T22:36:08.663Z,19.91
2022-08-02T22:38:38.359Z,19.82
2022-08-02T22:41:12.607Z,19.73
2022-08-02T22:43:40.061Z,19.63
2022-08-02T22:46:07.264Z,19.57
2022-08-02T22:48:42.498Z,19.56
2022-08-02T22:51:10.694Z,19.48
2022-08-02T22:53:39.563Z,19.39
2022-08-02T22:56:10.585Z,19.37
2022-08-02T22:58:45.272Z,27.49
2022-08-02T22:58:45.839Z,26.91
2022-08-02T22:58:57.041Z,26.78
